Time;durP1;ratioP1;P1;durP2;ratioP2;P2;SDS_P1;SDS_P2;PMS_P1;PMS_P2;Temp;Humidity;BMP_temperature;BMP_pressure;BME280_temperature;BME280_humidity;BME280_pressure;Samples;Min_cycle;Max_cycle;Signal;HPM_P1;HPM_P2
2022/12/31 05:00:35;;;;;;;2.60;0.70;;;15.70;99.90;;;;;;5977492;23;20019;31
2022/12/31 05:03:00;;;;;;;1.25;0.60;;;15.70;99.90;;;;;;4934914;29;20055;-66
2022/12/31 05:05:26;;;;;;;2.93;0.90;;;15.70;99.90;;;;;;4935591;29;20053;-65
2022/12/31 05:07:51;;;;;;;0.73;0.60;;;15.70;99.90;;;;;;4936437;29;20131;-65
2022/12/31 05:10:17;;;;;;;1.07;0.70;;;15.70;99.90;;;;;;4934289;29;20078;-66
2022/12/31 05:12:42;;;;;;;1.10;0.70;;;15.60;99.90;;;;;;4935328;29;20505;-65
2022/12/31 05:15:08;;;;;;;2.57;0.53;;;15.70;99.90;;;;;;4936569;29;20031;-65
2022/12/31 05:17:34;;;;;;;1.08;0.77;;;15.70;99.90;;;;;;4934588;29;20032;-66
2022/12/31 05:19:59;;;;;;;1.13;0.60;;;15.80;99.90;;;;;;4937421;29;20380;-66
2022/12/31 05:22:28;;;;;;;1.40;0.60;;;15.80;99.90;;;;;;4930180;29;20363;-65
2022/12/31 05:24:53;;;;;;;0.85;0.50;;;15.80;99.90;;;;;;4921133;29;20020;-66
2022/12/31 05:27:19;;;;;;;0.50;0.50;;;15.70;99.90;;;;;;4920799;29;20024;-65
2022/12/31 05:29:44;;;;;;;1.00;0.52;;;15.70;99.90;;;;;;4920886;29;20059;-67
2022/12/31 05:32:10;;;;;;;1.50;0.60;;;15.80;99.90;;;;;;4922494;29;20382;-66
2022/12/31 05:34:35;;;;;;;0.70;0.40;;;15.70;99.90;;;;;;4920791;29;20040;-66
2022/12/31 05:37:01;;;;;;;1.23;0.50;;;15.60;99.90;;;;;;4919919;29;20031;-66
2022/12/31 05:39:26;;;;;;;1.20;0.53;;;15.70;99.90;;;;;;4920359;29;20445;-66
2022/12/31 05:41:52;;;;;;;1.00;0.40;;;15.80;99.90;;;;;;4929428;29;20485;-66
2022/12/31 05:44:17;;;;;;;0.57;0.40;;;15.70;99.90;;;;;;4939427;29;20476;-66
2022/12/31 05:46:43;;;;;;;0.50;0.50;;;15.70;99.90;;;;;;4939302;29;20481;-66
2022/12/31 05:49:10;;;;;;;1.20;0.53;;;15.70;99.90;;;;;;4936998;29;20024;-66
2022/12/31 05:51:35;;;;;;;0.90;0.50;;;15.70;99.90;;;;;;4936383;29;20268;-66
2022/12/31 05:54:00;;;;;;;3.50;0.60;;;15.70;99.90;;;;;;4939793;29;20401;-65
2022/12/31 05:56:26;;;;;;;0.50;0.37;;;15.60;99.90;;;;;;4939409;29;20027;-65
2022/12/31 05:58:51;;;;;;;1.87;0.60;;;15.60;99.90;;;;;;4938327;29;20039;-66
2022/12/31 06:01:17;;;;;;;2.33;0.73;;;15.60;99.90;;;;;;4937671;29;20432;-66
2022/12/31 06:03:42;;;;;;;0.67;0.50;;;15.70;99.90;;;;;;4937821;29;20038;-66
2022/12/31 06:06:08;;;;;;;0.87;0.53;;;15.60;99.90;;;;;;4938785;29;20477;-66
2022/12/31 06:08:33;;;;;;;1.53;0.60;;;15.50;99.90;;;;;;4937670;29;20032;-67
2022/12/31 06:10:59;;;;;;;1.40;0.50;;;15.50;99.90;;;;;;4938772;29;20382;-65
2022/12/31 06:13:25;;;;;;;0.90;0.53;;;15.50;99.90;;;;;;4933159;29;20028;-66
2022/12/31 06:15:50;;;;;;;2.42;0.70;;;15.40;99.90;;;;;;4919881;29;20062;-66
2022/12/31 06:18:16;;;;;;;1.10;0.67;;;15.40;99.90;;;;;;4919904;29;20064;-66
2022/12/31 06:20:41;;;;;;;1.20;0.67;;;15.40;99.90;;;;;;4919754;29;20036;-66
2022/12/31 06:23:07;;;;;;;2.43;0.60;;;15.50;99.90;;;;;;4934749;29;20445;-66
2022/12/31 06:25:35;;;;;;;2.27;0.63;;;15.50;99.90;;;;;;4920080;29;20024;-67
2022/12/31 06:28:02;;;;;;;1.67;0.80;;;15.40;99.90;;;;;;4919637;29;20016;-66
2022/12/31 06:30:27;;;;;;;1.15;0.70;;;15.40;99.90;;;;;;4918916;29;20027;-66
2022/12/31 06:32:54;;;;;;;2.73;1.07;;;15.30;99.90;;;;;;4920174;29;20028;-66
2022/12/31 06:35:20;;;;;;;3.00;2.38;;;15.30;99.90;;;;;;4930692;29;20107;-66
2022/12/31 06:37:45;;;;;;;0.70;0.50;;;15.20;99.90;;;;;;4937350;29;20082;-66
2022/12/31 06:40:11;;;;;;;1.50;1.00;;;15.30;99.90;;;;;;4939051;29;20031;-65
2022/12/31 06:42:37;;;;;;;1.58;0.77;;;15.30;99.90;;;;;;4924976;29;20318;-67
2022/12/31 06:45:03;;;;;;;1.30;0.77;;;15.40;99.90;;;;;;4920223;29;20100;-66
2022/12/31 06:47:29;;;;;;;2.47;0.73;;;15.40;99.90;;;;;;4919251;29;20107;-66
2022/12/31 06:49:54;;;;;;;1.27;0.70;;;15.30;99.90;;;;;;4919184;29;20044;-67
2022/12/31 06:52:20;;;;;;;1.88;1.00;;;15.30;99.90;;;;;;4919158;29;20036;-66
2022/12/31 06:54:47;;;;;;;0.80;0.52;;;15.40;99.90;;;;;;4919825;29;20333;-66
2022/12/31 06:57:13;;;;;;;1.27;0.70;;;15.30;99.90;;;;;;4920214;29;20050;-66
2022/12/31 06:59:39;;;;;;;2.03;1.55;;;15.40;99.90;;;;;;4919234;29;20044;-67
2022/12/31 07:02:23;;;;;;;2.00;0.88;;;15.40;99.90;;;;;;4919073;29;20056;-66
2022/12/31 07:05:06;;;;;;;3.00;0.80;;;15.40;99.90;;;;;;4919372;29;20024;-67
2022/12/31 07:07:36;;;;;;;1.83;0.80;;;15.40;99.90;;;;;;4926782;29;20371;-67
2022/12/31 07:10:39;;;;;;;2.13;0.68;;;15.40;99.90;;;;;;4924847;29;20099;-67
2022/12/31 07:13:40;;;;;;;1.27;0.75;;;15.40;99.90;;;;;;4919428;29;20032;-69
2022/12/31 07:16:24;;;;;;;1.10;0.70;;;15.40;99.90;;;;;;4926550;29;20043;-67
2022/12/31 07:19:10;;;;;;;2.05;0.77;;;15.40;99.90;;;;;;4919492;29;20114;-68
2022/12/31 07:21:38;;;;;;;5.22;0.60;;;15.40;99.90;;;;;;4926426;29;20366;-68
2022/12/31 07:24:08;;;;;;;1.92;0.80;;;15.50;99.90;;;;;;4920631;29;20454;-69
2022/12/31 07:26:59;;;;;;;1.02;0.70;;;15.50;99.90;;;;;;4918955;29;20123;-68
2022/12/31 07:29:45;;;;;;;2.25;0.75;;;15.50;99.90;;;;;;4920778;29;20087;-69
2022/12/31 07:32:38;;;;;;;0.98;0.65;;;15.50;99.90;;;;;;4901514;29;20040;-68
2022/12/31 07:35:10;;;;;;;2.88;1.00;;;15.50;99.90;;;;;;4903572;29;20024;-68
2022/12/31 07:37:48;;;;;;;1.55;0.60;;;15.50;99.90;;;;;;4918663;29;20079;-67
2022/12/31 07:40:25;;;;;;;0.63;0.60;;;15.50;99.90;;;;;;4916627;29;20493;-68
2022/12/31 07:43:06;;;;;;;1.02;0.60;;;15.60;99.90;;;;;;4917693;29;20502;-68
2022/12/31 07:45:37;;;;;;;3.20;0.70;;;15.60;99.90;;;;;;4918609;29;20426;-68
2022/12/31 07:48:02;;;;;;;1.58;0.60;;;15.60;99.90;;;;;;4918746;29;20028;-68
2022/12/31 07:50:28;;;;;;;1.40;0.80;;;15.70;99.90;;;;;;4916840;29;20036;-70
2022/12/31 07:52:54;;;;;;;1.08;0.68;;;15.70;99.90;;;;;;4918247;29;20040;-70
2022/12/31 07:55:20;;;;;;;1.70;0.60;;;15.80;99.90;;;;;;4918222;29;20025;-70
2022/12/31 07:58:16;;;;;;;2.45;0.75;;;15.80;99.90;;;;;;4918114;29;20043;-70
2022/12/31 08:00:42;;;;;;;1.55;0.70;;;15.80;99.90;;;;;;4917444;29;20038;-70
2022/12/31 08:03:36;;;;;;;1.77;0.70;;;15.80;99.90;;;;;;4916639;29;20119;-71
2022/12/31 08:06:28;;;;;;;3.05;1.08;;;15.90;99.90;;;;;;4916783;29;20020;-70
2022/12/31 08:09:47;;;;;;;2.20;1.25;;;16.00;99.90;;;;;;4917679;29;20027;-67
2022/12/31 08:12:14;;;;;;;1.63;0.77;;;16.00;99.90;;;;;;4917468;29;20070;-67
2022/12/31 08:14:44;;;;;;;1.25;0.85;;;16.00;99.90;;;;;;4917712;29;20033;-66
2022/12/31 08:17:14;;;;;;;1.40;0.80;;;16.10;99.90;;;;;;4917836;29;20063;-67
2022/12/31 08:19:41;;;;;;;1.08;0.70;;;16.10;99.90;;;;;;4917315;29;20043;-68
2022/12/31 08:22:09;;;;;;;;;;;16.00;99.90;;;;;;4903456;29;20111;-67
2022/12/31 08:24:42;;;;;;;2.38;1.10;;;16.10;99.90;;;;;;4913892;29;20378;-67
2022/12/31 08:27:31;;;;;;;1.20;0.80;;;16.20;99.90;;;;;;4917776;29;20474;-66
2022/12/31 08:30:08;;;;;;;2.40;0.70;;;16.20;99.90;;;;;;4917567;29;20032;-66
2022/12/31 08:32:47;;;;;;;2.05;1.15;;;16.30;99.90;;;;;;4917546;29;20036;-68
2022/12/31 08:35:44;;;;;;;1.42;0.82;;;16.30;99.90;;;;;;4917354;29;20043;-67
2022/12/31 08:38:34;;;;;;;2.03;0.70;;;16.30;99.90;;;;;;4917044;29;20170;-67
2022/12/31 08:41:31;;;;;;;3.30;0.80;;;16.40;99.90;;;;;;4898305;29;20112;-67
2022/12/31 08:44:36;;;;;;;0.60;0.47;;;16.50;99.90;;;;;;4898305;29;20028;-67
2022/12/31 08:47:02;;;;;;;5.10;0.88;;;16.60;99.90;;;;;;4899128;29;20075;-67
2022/12/31 08:49:29;;;;;;;1.93;0.50;;;16.50;99.90;;;;;;4898566;29;20103;-67
2022/12/31 08:51:55;;;;;;;1.60;0.80;;;16.60;99.90;;;;;;4898637;29;20464;-67
2022/12/31 08:54:21;;;;;;;1.38;0.63;;;16.60;99.90;;;;;;4899137;29;20367;-66
2022/12/31 08:57:14;;;;;;;1.30;0.80;;;16.70;99.90;;;;;;4898409;29;20105;-66
2022/12/31 09:00:01;;;;;;;2.25;0.90;;;16.70;99.90;;;;;;4897911;29;20553;-67
2022/12/31 09:02:52;;;;;;;1.45;0.60;;;16.80;99.90;;;;;;4897688;29;20502;-67
2022/12/31 09:05:30;;;;;;;1.17;0.57;;;16.80;99.90;;;;;;4913167;29;20033;-66
2022/12/31 09:08:10;;;;;;;6.13;1.30;;;16.90;99.90;;;;;;4897745;29;20485;-67
2022/12/31 09:10:54;;;;;;;1.58;0.98;;;17.00;99.90;;;;;;4896355;29;20042;-67
2022/12/31 09:13:23;;;;;;;5.10;3.38;;;17.00;99.90;;;;;;4896874;29;20028;-67
2022/12/31 09:16:13;;;;;;;1.60;0.77;;;17.00;99.90;;;;;;4897462;29;20033;-66
2022/12/31 09:18:41;;;;;;;1.90;0.90;;;17.00;99.90;;;;;;4912273;29;20068;-66
2022/12/31 09:21:12;;;;;;;1.25;0.70;;;17.00;99.90;;;;;;4910791;29;20065;-70
2022/12/31 09:23:38;;;;;;;2.83;0.88;;;17.00;99.90;;;;;;4912106;29;20088;-68
2022/12/31 09:26:12;;;;;;;;;;;17.00;99.90;;;;;;4898309;29;20028;-70
2022/12/31 09:29:01;;;;;;;2.05;0.70;;;17.00;99.90;;;;;;4912755;29;19908;-69
2022/12/31 09:31:36;;;;;;;2.08;0.90;;;17.00;99.90;;;;;;4898179;29;20052;-70
2022/12/31 09:34:11;;;;;;;2.15;0.90;;;17.10;99.90;;;;;;4898216;29;20450;-66
2022/12/31 09:36:50;;;;;;;2.22;0.75;;;17.20;99.90;;;;;;4897589;29;20111;-67
2022/12/31 09:39:31;;;;;;;2.40;0.60;;;17.10;99.90;;;;;;4898051;29;20107;-69
2022/12/31 09:42:18;;;;;;;1.90;0.80;;;17.40;99.90;;;;;;4906037;29;20072;-68
2022/12/31 09:45:13;;;;;;;1.43;0.60;;;17.30;99.90;;;;;;4911698;29;20035;-67
2022/12/31 09:48:15;;;;;;;2.10;0.70;;;17.40;99.90;;;;;;4895906;29;20108;-67
2022/12/31 09:51:05;;;;;;;1.55;0.88;;;17.40;99.90;;;;;;4900504;29;20044;-67
2022/12/31 09:53:46;;;;;;;2.28;0.90;;;17.30;99.90;;;;;;4895544;29;20031;-70
2022/12/31 09:56:20;;;;;;;3.92;0.70;;;17.40;99.90;;;;;;4896751;29;20029;-70
2022/12/31 09:59:12;;;;;;;1.35;0.75;;;17.50;99.90;;;;;;4896683;29;20165;-70
2022/12/31 10:01:49;;;;;;;1.00;0.60;;;17.60;99.90;;;;;;4897258;29;20164;-69
2022/12/31 10:05:11;;;;;;;1.92;0.73;;;17.80;99.90;;;;;;4897529;29;20576;-70
2022/12/31 10:07:57;;;;;;;1.40;0.60;;;18.00;99.90;;;;;;4917519;29;20036;-69
2022/12/31 10:10:33;;;;;;;1.40;0.70;;;18.10;99.90;;;;;;4917816;29;20031;-69
2022/12/31 10:13:46;;;;;;;1.90;1.00;;;18.10;99.90;;;;;;4901807;29;20453;-69
2022/12/31 10:16:37;;;;;;;1.65;0.57;;;18.30;99.90;;;;;;4851795;29;20041;-68
2022/12/31 10:19:21;;;;;;;1.95;0.75;;;18.30;99.90;;;;;;4917658;29;20393;-66
2022/12/31 10:22:23;;;;;;;1.15;0.70;;;18.50;99.90;;;;;;4917726;29;20039;-67
2022/12/31 10:25:36;;;;;;;3.13;1.20;;;18.40;99.90;;;;;;4917753;29;20091;-68
2022/12/31 10:28:26;;;;;;;0.88;0.60;;;18.50;99.90;;;;;;4917695;29;20035;-66
2022/12/31 10:31:11;;;;;;;5.13;0.70;;;18.70;99.90;;;;;;4917463;29;20040;-69
2022/12/31 10:34:22;;;;;;;1.30;0.60;;;18.80;99.90;;;;;;4917529;29;20393;-67
2022/12/31 10:36:59;;;;;;;2.35;0.70;;;18.70;99.90;;;;;;4917469;29;20040;-67
2022/12/31 10:39:36;;;;;;;2.53;0.80;;;18.70;99.90;;;;;;4900091;29;20600;-68
2022/12/31 10:42:19;;;;;;;1.98;0.80;;;18.80;99.90;;;;;;4900514;29;20170;-69
2022/12/31 10:45:03;;;;;;;2.35;0.85;;;19.10;99.90;;;;;;4900571;29;20029;-68
2022/12/31 10:47:28;;;;;;;3.35;0.60;;;19.20;99.90;;;;;;4900172;29;20112;-68
2022/12/31 10:50:29;;;;;;;3.03;0.70;;;18.90;99.90;;;;;;4911806;29;20063;-71
2022/12/31 10:53:03;;;;;;;2.95;0.70;;;18.80;99.90;;;;;;4914945;29;20047;-70
2022/12/31 10:55:53;;;;;;;2.10;0.93;;;18.80;99.90;;;;;;4917190;29;20399;-70
2022/12/31 10:58:55;;;;;;;2.40;0.70;;;19.00;99.90;;;;;;4910769;29;20527;-70
2022/12/31 11:01:40;;;;;;;4.25;0.60;;;19.00;99.90;;;;;;4911809;29;20036;-69
2022/12/31 11:04:43;;;;;;;2.05;0.80;;;18.80;99.90;;;;;;4897914;29;20608;-66
2022/12/31 11:07:28;;;;;;;2.42;0.57;;;18.70;99.90;;;;;;4899235;29;20460;-67
2022/12/31 11:10:21;;;;;;;0.95;0.60;;;18.70;99.90;;;;;;4900586;29;20071;-68
2022/12/31 11:13:24;;;;;;;1.15;0.50;;;18.70;99.90;;;;;;4898289;29;20087;-69
2022/12/31 11:16:10;;;;;;;1.10;0.60;;;18.70;99.90;;;;;;4900388;29;20028;-69
2022/12/31 11:18:49;;;;;;;1.50;0.60;;;18.60;99.90;;;;;;4898190;29;20029;-71
2022/12/31 11:21:36;;;;;;;2.83;0.80;;;18.70;99.90;;;;;;4899888;29;20039;-68
2022/12/31 11:24:32;;;;;;;1.23;0.77;;;18.60;99.90;;;;;;4898247;29;20120;-67
2022/12/31 11:27:06;;;;;;;1.23;0.75;;;18.60;99.90;;;;;;4899562;29;20105;-67
2022/12/31 11:30:09;;;;;;;1.70;0.60;;;18.80;99.90;;;;;;4908991;29;20115;-67
2022/12/31 11:32:49;;;;;;;1.50;0.82;;;18.90;99.90;;;;;;4899259;29;20088;-68
2022/12/31 11:35:56;;;;;;;1.33;0.60;;;18.80;99.90;;;;;;4899947;29;20120;-68
2022/12/31 11:38:42;;;;;;;1.35;0.68;;;18.70;99.90;;;;;;4910304;29;20072;-67
2022/12/31 11:41:24;;;;;;;1.48;0.55;;;18.70;99.90;;;;;;4899310;29;20037;-69
2022/12/31 11:44:10;;;;;;;1.20;0.50;;;18.70;99.90;;;;;;4900152;29;20025;-67
2022/12/31 11:46:57;;;;;;;1.27;0.60;;;18.80;99.90;;;;;;4918257;29;20031;-67
2022/12/31 11:49:37;;;;;;;1.40;0.77;;;18.80;99.90;;;;;;4918103;29;20028;-69
2022/12/31 11:52:29;;;;;;;4.30;1.63;;;18.90;99.90;;;;;;4917568;29;21722;-69
2022/12/31 11:55:28;;;;;;;3.00;1.13;;;19.00;99.90;;;;;;4908804;29;20038;-69
2022/12/31 11:57:58;;;;;;;1.77;0.60;;;19.10;99.90;;;;;;4907593;29;20108;-69
2022/12/31 12:00:25;;;;;;;1.75;0.70;;;19.10;99.90;;;;;;4913026;29;21038;-69
2022/12/31 12:02:56;;;;;;;1.63;1.17;;;19.00;99.90;;;;;;4917093;29;20505;-69
2022/12/31 12:05:23;;;;;;;1.73;0.57;;;19.20;99.90;;;;;;4916551;29;20024;-69
2022/12/31 12:07:50;;;;;;;0.90;0.60;;;19.20;99.90;;;;;;4917917;29;20029;-70
2022/12/31 12:10:24;;;;;;;0.63;0.47;;;19.20;99.90;;;;;;4917719;29;20072;-69
2022/12/31 12:12:51;;;;;;;1.40;0.50;;;19.20;99.90;;;;;;4909467;29;20036;-70
2022/12/31 12:15:30;;;;;;;2.78;0.63;;;19.20;99.90;;;;;;4910324;29;20032;-69
2022/12/31 12:17:58;;;;;;;2.33;0.75;;;19.20;99.90;;;;;;4930194;29;20123;-69
2022/12/31 12:20:45;;;;;;;3.30;0.70;;;19.30;99.90;;;;;;4916530;29;20100;-69
2022/12/31 12:23:22;;;;;;;0.93;0.50;;;19.30;99.90;;;;;;4920164;29;20029;-69
2022/12/31 12:25:49;;;;;;;2.05;0.50;;;19.30;99.90;;;;;;4899535;29;20032;-69
2022/12/31 12:28:17;;;;;;;1.02;0.65;;;19.30;99.90;;;;;;4900238;29;20032;-71
2022/12/31 12:30:45;;;;;;;1.67;0.60;;;19.40;99.90;;;;;;4905557;29;20028;-69
2022/12/31 12:33:16;;;;;;;1.15;0.80;;;19.40;99.90;;;;;;4917938;29;20175;-68
2022/12/31 12:35:42;;;;;;;1.02;0.50;;;19.40;99.90;;;;;;4901660;29;20120;-69
2022/12/31 12:38:27;;;;;;;1.00;0.57;;;19.30;99.90;;;;;;4898657;29;20029;-69
2022/12/31 12:40:58;;;;;;;1.65;0.70;;;19.30;99.90;;;;;;4898447;29;20040;-69
2022/12/31 12:43:26;;;;;;;2.55;0.60;;;19.20;99.90;;;;;;4918112;29;20029;-69
2022/12/31 12:45:56;;;;;;;2.95;0.73;;;19.30;99.90;;;;;;4916127;29;20020;-69
2022/12/31 12:48:37;;;;;;;2.97;0.57;;;19.20;99.90;;;;;;4917923;29;20028;-69
2022/12/31 12:51:40;;;;;;;1.75;1.08;;;19.30;99.90;;;;;;4910475;29;20043;-67
2022/12/31 12:54:14;;;;;;;0.60;0.50;;;19.30;99.90;;;;;;4911796;29;20060;-69
2022/12/31 12:57:17;;;;;;;2.40;0.85;;;19.10;99.90;;;;;;4916239;29;20400;-68
2022/12/31 13:00:11;;;;;;;1.15;0.63;;;19.10;99.90;;;;;;4917133;29;20029;-68
2022/12/31 13:02:58;;;;;;;3.38;0.80;;;19.20;99.90;;;;;;4917084;29;20032;-68
2022/12/31 13:05:39;;;;;;;2.03;0.73;;;19.10;99.90;;;;;;4914081;29;20502;-67
2022/12/31 13:08:20;;;;;;;1.10;0.77;;;19.00;99.90;;;;;;4915856;29;20028;-68
2022/12/31 13:11:14;;;;;;;1.50;0.65;;;19.00;99.90;;;;;;4913614;29;20048;-68
2022/12/31 13:13:45;;;;;;;1.40;0.70;;;19.10;99.90;;;;;;4916389;29;20442;-68
2022/12/31 13:16:18;;;;;;;1.35;0.70;;;19.00;99.90;;;;;;4917172;29;20030;-68
2022/12/31 13:19:12;;;;;;;1.92;0.65;;;19.10;99.90;;;;;;4918328;29;20025;-72
2022/12/31 13:21:49;;;;;;;1.20;0.70;;;19.10;99.90;;;;;;4916092;29;20091;-69
2022/12/31 13:24:37;;;;;;;1.20;0.43;;;19.10;99.90;;;;;;4919598;29;20150;-69
2022/12/31 13:27:17;;;;;;;1.40;0.77;;;19.10;99.90;;;;;;4920754;29;20024;-70
2022/12/31 13:29:46;;;;;;;2.35;0.50;;;19.10;99.90;;;;;;4920698;29;20039;-73
2022/12/31 13:32:18;;;;;;;1.10;0.50;;;19.10;99.90;;;;;;4918246;29;20052;-71
2022/12/31 13:34:48;;;;;;;1.13;0.70;;;19.00;99.90;;;;;;4917374;29;20035;-71
2022/12/31 13:37:26;;;;;;;1.85;0.68;;;19.00;99.90;;;;;;4917259;29;20047;-68
2022/12/31 13:40:00;;;;;;;1.50;0.60;;;19.00;99.90;;;;;;4917111;29;20028;-68
2022/12/31 13:42:41;;;;;;;0.90;0.55;;;18.90;99.90;;;;;;4920239;29;20033;-71
2022/12/31 13:45:18;;;;;;;1.27;0.60;;;18.90;99.90;;;;;;4919499;29;20056;-69
2022/12/31 13:47:46;;;;;;;;;;;18.90;99.90;;;;;;4921136;29;20423;-70
2022/12/31 13:50:20;;;;;;;1.02;0.50;;;18.80;99.90;;;;;;4920363;29;20002;-70
2022/12/31 13:53:01;;;;;;;1.35;0.60;;;18.90;99.90;;;;;;4920302;29;20024;-69
2022/12/31 13:55:40;;;;;;;1.45;0.70;;;18.90;99.90;;;;;;4920612;29;20032;-68
2022/12/31 13:58:31;;;;;;;2.28;0.60;;;18.90;99.90;;;;;;4920501;29;20034;-70
2022/12/31 14:01:14;;;;;;;1.20;0.70;;;18.90;99.90;;;;;;4919289;29;20578;-69
2022/12/31 14:04:12;;;;;;;1.83;0.77;;;18.90;99.90;;;;;;4919389;29;20039;-69
2022/12/31 14:06:52;;;;;;;1.92;0.70;;;18.90;99.90;;;;;;4918943;29;20024;-67
2022/12/31 14:09:27;;;;;;;1.23;0.80;;;18.80;99.90;;;;;;4920372;29;20032;-68
2022/12/31 14:12:26;;;;;;;0.60;0.52;;;18.70;99.90;;;;;;4918790;29;20024;-69
2022/12/31 14:15:20;;;;;;;1.65;0.98;;;18.60;99.90;;;;;;4918728;29;20028;-68
2022/12/31 14:18:13;;;;;;;2.83;0.65;;;18.70;99.90;;;;;;4920213;29;20024;-69
2022/12/31 14:20:57;;;;;;;1.00;0.65;;;18.70;99.90;;;;;;4920342;29;20074;-68
2022/12/31 14:23:52;;;;;;;1.55;0.80;;;18.60;99.90;;;;;;4920265;29;20353;-69
2022/12/31 14:26:27;;;;;;;3.30;2.08;;;18.50;99.90;;;;;;4919713;29;20092;-71
2022/12/31 14:29:13;;;;;;;2.75;1.73;;;18.40;99.90;;;;;;4921798;29;20470;-69
2022/12/31 14:31:48;;;;;;;3.40;1.13;;;18.40;99.90;;;;;;4919964;29;20034;-70
2022/12/31 14:34:37;;;;;;;2.97;1.83;;;18.50;99.90;;;;;;4920850;29;20020;-68
2022/12/31 14:37:44;;;;;;;1.77;0.95;;;18.50;99.90;;;;;;4920655;29;20028;-68
2022/12/31 14:40:28;;;;;;;1.85;1.00;;;18.50;99.90;;;;;;4918495;29;20044;-69
2022/12/31 14:43:31;;;;;;;3.28;1.13;;;18.40;99.90;;;;;;4911238;29;20063;-67
2022/12/31 14:46:21;;;;;;;2.47;0.80;;;18.40;99.90;;;;;;4911354;29;20063;-69
2022/12/31 14:48:54;;;;;;;1.80;1.23;;;18.40;99.90;;;;;;4920897;29;20024;-70
2022/12/31 14:51:20;;;;;;;0.60;0.50;;;18.40;99.90;;;;;;4920421;29;20426;-69
2022/12/31 14:53:52;;;;;;;1.77;0.90;;;18.30;99.90;;;;;;4921704;29;20040;-69
2022/12/31 14:56:41;;;;;;;1.65;0.80;;;18.40;99.90;;;;;;4921109;29;20143;-70
2022/12/31 14:59:25;;;;;;;1.90;0.80;;;18.40;99.90;;;;;;4921674;29;20119;-69
2022/12/31 15:01:50;;;;;;;1.55;0.70;;;18.30;99.90;;;;;;4918666;29;20032;-69
2022/12/31 15:04:30;;;;;;;1.58;0.80;;;18.30;99.90;;;;;;4920080;29;20048;-69
2022/12/31 15:07:27;;;;;;;1.33;0.70;;;18.40;99.90;;;;;;4921607;29;20027;-67
2022/12/31 15:10:10;;;;;;;1.73;0.60;;;18.30;99.90;;;;;;4919571;29;20036;-69
2022/12/31 15:12:59;;;;;;;1.23;0.70;;;18.40;99.90;;;;;;4918167;29;20379;-69
2022/12/31 15:15:42;;;;;;;1.15;0.70;;;18.30;99.90;;;;;;4918968;29;20028;-68
2022/12/31 15:18:27;;;;;;;1.70;0.95;;;18.30;99.90;;;;;;4919515;29;20393;-68
2022/12/31 15:21:03;;;;;;;1.92;0.60;;;18.30;99.90;;;;;;4917481;29;20054;-69
2022/12/31 15:23:38;;;;;;;0.85;0.70;;;18.20;99.90;;;;;;4919192;29;20020;-68
2022/12/31 15:26:04;;;;;;;1.00;0.70;;;18.20;99.90;;;;;;4919297;29;20028;-69
2022/12/31 15:28:37;;;;;;;1.00;0.63;;;18.10;99.90;;;;;;4901804;29;20025;-68
2022/12/31 15:31:12;;;;;;;0.95;0.70;;;18.00;99.90;;;;;;4912426;29;20079;-68
2022/12/31 15:33:39;;;;;;;1.75;0.60;;;18.00;99.90;;;;;;4937041;29;20031;-68
2022/12/31 15:36:15;;;;;;;1.38;0.70;;;17.90;99.90;;;;;;4932770;29;20027;-69
2022/12/31 15:38:42;;;;;;;1.05;0.60;;;17.90;99.90;;;;;;4937972;29;20042;-67
2022/12/31 15:41:34;;;;;;;0.73;0.50;;;17.80;99.90;;;;;;4938762;29;20067;-68
2022/12/31 15:44:16;;;;;;;0.57;0.50;;;17.80;99.90;;;;;;4938164;29;20027;-67
2022/12/31 15:46:43;;;;;;;1.30;0.70;;;17.80;99.90;;;;;;4937629;29;20024;-67
2022/12/31 15:49:19;;;;;;;1.08;0.50;;;17.80;99.90;;;;;;4937234;29;20515;-67
2022/12/31 15:52:00;;;;;;;0.70;0.60;;;17.80;99.90;;;;;;4938087;29;20130;-67
2022/12/31 15:54:37;;;;;;;1.23;0.70;;;17.80;99.90;;;;;;4936055;29;20024;-69
2022/12/31 15:57:03;;;;;;;;;;;17.80;99.90;;;;;;4937627;29;20051;-68
2022/12/31 15:59:28;;;;;;;1.45;0.77;;;17.80;99.90;;;;;;4936991;29;19906;-68
2022/12/31 16:01:55;;;;;;;2.10;0.77;;;17.70;99.90;;;;;;4936921;29;20042;-68
2022/12/31 16:04:26;;;;;;;1.52;0.80;;;17.70;99.90;;;;;;4936151;29;20042;-68
2022/12/31 16:06:52;;;;;;;1.05;0.70;;;17.70;99.90;;;;;;4936989;29;20452;-67
2022/12/31 16:09:22;;;;;;;;;;;17.80;99.90;;;;;;4938373;29;20024;-68
2022/12/31 16:11:49;;;;;;;1.10;0.80;;;17.70;99.90;;;;;;4937235;29;19914;-68
2022/12/31 16:14:22;;;;;;;1.95;0.65;;;17.70;99.90;;;;;;4937261;29;20050;-68
2022/12/31 16:16:54;;;;;;;3.63;1.00;;;17.70;99.90;;;;;;4937505;29;20485;-68
2022/12/31 16:19:29;;;;;;;1.30;1.00;;;17.60;99.90;;;;;;4937793;29;20145;-68
2022/12/31 16:21:57;;;;;;;2.80;2.50;;;17.60;99.90;;;;;;4938838;29;20031;-67
2022/12/31 16:24:29;;;;;;;3.03;1.85;;;17.50;99.90;;;;;;4939234;29;20047;-68
2022/12/31 16:26:59;;;;;;;2.45;1.75;;;17.40;99.90;;;;;;4937617;29;20079;-68
2022/12/31 16:29:25;;;;;;;1.55;1.13;;;17.40;99.90;;;;;;4935593;29;20091;-68
2022/12/31 16:31:52;;;;;;;2.65;1.40;;;17.40;99.90;;;;;;4936165;29;20118;-67
2022/12/31 16:34:24;;;;;;;1.70;1.25;;;17.50;99.90;;;;;;4909495;29;20481;-67
2022/12/31 16:36:55;;;;;;;4.30;1.00;;;17.50;99.90;;;;;;4912344;29;20375;-68
2022/12/31 16:39:25;;;;;;;2.53;1.08;;;17.40;99.90;;;;;;4899183;29;20025;-66
2022/12/31 16:41:58;;;;;;;5.97;4.32;;;17.30;99.90;;;;;;4899171;29;20035;-67
2022/12/31 16:44:26;;;;;;;2.45;1.13;;;17.40;99.90;;;;;;4898887;29;20557;-66
2022/12/31 16:46:55;;;;;;;4.40;1.60;;;17.30;99.90;;;;;;4898928;29;20076;-67
2022/12/31 16:49:21;;;;;;;2.03;1.10;;;17.40;99.90;;;;;;4898430;29;20112;-68
2022/12/31 16:51:48;;;;;;;;;;;17.30;99.90;;;;;;4898811;29;20033;-68
2022/12/31 16:54:37;;;;;;;2.85;1.38;;;17.30;99.90;;;;;;4899122;29;19915;-71
2022/12/31 16:57:05;;;;;;;3.38;1.08;;;17.40;99.90;;;;;;4910764;29;20028;-69
2022/12/31 16:59:40;;;;;;;4.25;2.20;;;17.30;99.90;;;;;;4917357;29;20115;-71
2022/12/31 17:02:19;;;;;;;2.15;1.35;;;17.40;99.90;;;;;;4931528;29;20040;-73
2022/12/31 17:04:49;;;;;;;1.83;1.20;;;17.40;99.90;;;;;;4917498;29;20091;-71
2022/12/31 17:07:25;;;;;;;2.25;1.30;;;17.30;99.90;;;;;;4917128;29;20024;-70
2022/12/31 17:10:06;;;;;;;1.95;1.33;;;17.20;99.90;;;;;;4917462;29;20032;-72
2022/12/31 17:12:34;;;;;;;1.85;1.05;;;17.20;99.90;;;;;;4916507;29;20437;-72
2022/12/31 17:15:04;;;;;;;2.10;1.35;;;17.20;99.90;;;;;;4918882;29;20035;-71
2022/12/31 17:17:34;;;;;;;3.85;2.00;;;17.10;99.90;;;;;;4921054;29;20035;-72
2022/12/31 17:20:04;;;;;;;4.35;2.38;;;17.10;99.90;;;;;;4928903;29;20162;-71
2022/12/31 17:22:41;;;;;;;3.38;1.95;;;17.00;99.90;;;;;;4928867;29;20039;-71
2022/12/31 17:25:14;;;;;;;1.80;1.50;;;17.00;99.90;;;;;;4933551;29;20023;-72
2022/12/31 17:27:50;;;;;;;3.08;1.80;;;16.80;99.90;;;;;;4955611;29;20047;-72
2022/12/31 17:30:38;;;;;;;2.22;1.67;;;16.90;99.90;;;;;;4941496;29;20039;-71
2022/12/31 17:33:28;;;;;;;3.33;1.80;;;16.80;99.90;;;;;;4939858;29;20561;-71
2022/12/31 17:36:14;;;;;;;2.78;1.90;;;16.80;99.90;;;;;;4939884;29;20138;-70
2022/12/31 17:38:40;;;;;;;5.63;3.67;;;16.70;99.90;;;;;;4940297;29;20038;-71
2022/12/31 17:41:05;;;;;;;4.22;2.30;;;16.70;99.90;;;;;;4939835;29;20036;-71
2022/12/31 17:43:36;;;;;;;3.70;2.30;;;16.70;99.90;;;;;;4939895;29;20032;-71
2022/12/31 17:46:15;;;;;;;3.45;2.00;;;16.60;99.90;;;;;;4938420;29;20031;-70
2022/12/31 17:48:42;;;;;;;3.58;1.80;;;16.60;99.90;;;;;;4939676;29;20027;-70
2022/12/31 17:51:08;;;;;;;2.50;1.58;;;16.60;99.90;;;;;;4939377;29;20027;-71
2022/12/31 17:53:34;;;;;;;2.42;1.63;;;16.50;99.90;;;;;;4938204;29;20115;-70
2022/12/31 17:56:06;;;;;;;6.22;1.73;;;16.50;99.90;;;;;;4938713;29;20131;-68
2022/12/31 17:58:35;;;;;;;2.92;1.88;;;16.50;99.90;;;;;;4939542;29;20047;-70
2022/12/31 18:01:03;;;;;;;2.95;1.77;;;16.50;99.90;;;;;;4939216;29;20036;-68
2022/12/31 18:03:29;;;;;;;4.30;1.90;;;16.40;99.90;;;;;;4953939;29;20043;-70
2022/12/31 18:05:54;;;;;;;3.67;1.60;;;16.50;99.90;;;;;;4939130;29;20028;-66
2022/12/31 18:08:20;;;;;;;3.80;1.90;;;16.50;99.90;;;;;;4938210;29;20023;-69
2022/12/31 18:10:46;;;;;;;2.80;1.60;;;16.50;99.90;;;;;;4939089;29;20086;-66
2022/12/31 18:13:17;;;;;;;3.33;1.38;;;16.50;99.90;;;;;;4939036;29;20036;-67
2022/12/31 18:15:43;;;;;;;4.35;2.10;;;16.50;99.90;;;;;;4939044;29;20389;-67
2022/12/31 18:18:31;;;;;;;2.78;2.03;;;16.50;99.90;;;;;;4933167;29;20032;-68
2022/12/31 18:21:02;;;;;;;2.90;1.77;;;16.50;99.90;;;;;;4919692;29;20043;-67
2022/12/31 18:23:30;;;;;;;3.53;2.38;;;16.50;99.90;;;;;;4918441;29;20051;-67
2022/12/31 18:25:55;;;;;;;4.63;2.40;;;16.50;99.90;;;;;;4919287;29;20533;-68
2022/12/31 18:28:21;;;;;;;7.30;4.05;;;16.50;99.90;;;;;;4919393;29;20063;-68
2022/12/31 18:30:47;;;;;;;6.15;3.60;;;16.50;99.90;;;;;;4919690;29;20545;-67
2022/12/31 18:33:21;;;;;;;7.07;3.05;;;16.60;99.90;;;;;;4919674;29;20039;-67
2022/12/31 18:35:51;;;;;;;4.75;2.88;;;16.50;99.90;;;;;;4919544;29;20490;-70
2022/12/31 18:38:18;;;;;;;7.78;2.70;;;16.40;99.90;;;;;;4918324;29;20025;-70